createdAt,value
2018-11-05T00:00:32.576Z,23.70
2018-11-05T00:03:01.486Z,23.93
2018-11-05T00:05:30.407Z,22.27
2018-11-05T00:07:59.316Z,20.73
2018-11-05T00:10:28.262Z,21.93
2018-11-05T00:12:57.163Z,23.07
2018-11-05T00:15:26.089Z,23.07
2018-11-05T00:17:55.033Z,24.83
2018-11-05T00:20:23.975Z,26.83
2018-11-05T00:22:52.936Z,26.43
2018-11-05T00:25:21.880Z,25.63
2018-11-05T00:27:50.771Z,27.47
2018-11-05T00:30:19.677Z,27.63
2018-11-05T00:32:48.655Z,27.30
2018-11-05T00:35:17.521Z,26.80
2018-11-05T00:37:46.398Z,25.10
2018-11-05T00:40:16.349Z,23.67
2018-11-05T00:42:45.866Z,25.70
2018-11-05T00:45:15.252Z,25.63
2018-11-05T00:47:44.483Z,26.33
2018-11-05T00:50:14.672Z,26.17
2018-11-05T00:52:43.562Z,26.97
2018-11-05T00:55:13.084Z,25.13
2018-11-05T00:57:41.984Z,25.73
2018-11-05T01:00:15.584Z,26.83
2018-11-05T01:02:44.551Z,27.80
2018-11-05T01:05:17.060Z,27.03
2018-11-05T01:07:46.472Z,25.63
2018-11-05T01:10:16.208Z,32.50
2018-11-05T01:12:45.145Z,26.97
2018-11-05T01:15:17.759Z,27.03
2018-11-05T01:17:46.646Z,26.50
2018-11-05T01:20:16.139Z,27.03
2018-11-05T01:22:45.059Z,28.17
2018-11-05T01:25:14.015Z,27.37
2018-11-05T01:27:42.954Z,27.70
2018-11-05T01:30:13.106Z,38.42
2018-11-05T01:32:42.240Z,29.33
2018-11-05T01:35:12.490Z,34.70
2018-11-05T01:37:41.402Z,31.45
2018-11-05T01:40:12.704Z,25.00
2018-11-05T01:42:41.783Z,25.73
2018-11-05T01:45:11.918Z,25.50
2018-11-05T01:47:41.729Z,32.50
2018-11-05T01:50:12.446Z,28.53
2018-11-05T01:52:41.828Z,28.17
2018-11-05T01:55:11.215Z,25.67
2018-11-05T01:57:40.654Z,26.33
2018-11-05T02:00:11.737Z,30.82
2018-11-05T02:02:40.614Z,31.50
2018-11-05T02:05:10.508Z,25.47
2018-11-05T02:07:39.982Z,22.70
2018-11-05T02:10:11.324Z,21.33
2018-11-05T02:12:40.461Z,22.83
2018-11-05T02:15:09.916Z,21.37
2018-11-05T02:17:39.387Z,22.67
2018-11-05T02:20:08.384Z,23.17
2018-11-05T02:22:37.525Z,21.97
2018-11-05T02:25:07.443Z,22.27
2018-11-05T02:27:36.331Z,23.70
2018-11-05T02:30:08.436Z,23.93
2018-11-05T02:32:37.345Z,26.70
2018-11-05T02:35:07.431Z,29.77
2018-11-05T02:37:36.425Z,24.63
2018-11-05T02:40:07.979Z,24.90
2018-11-05T02:42:36.882Z,24.10
2018-11-05T02:45:07.120Z,22.50
2018-11-05T02:47:36.153Z,23.93
2018-11-05T02:50:05.941Z,24.40
2018-11-05T02:52:34.856Z,24.03
2018-11-05T02:55:04.015Z,25.07
2018-11-05T02:57:32.939Z,25.97
2018-11-05T03:00:01.865Z,25.30
2018-11-05T03:02:30.767Z,25.13
2018-11-05T03:04:59.737Z,22.77
2018-11-05T03:07:28.655Z,36.55
2018-11-05T03:09:57.610Z,26.23
2018-11-05T03:12:26.521Z,28.70
2018-11-05T03:14:55.461Z,26.90
2018-11-05T03:17:24.349Z,26.67
2018-11-05T03:19:53.265Z,25.33
2018-11-05T03:22:22.539Z,25.53
2018-11-05T03:24:51.456Z,24.50
2018-11-05T03:27:20.379Z,23.93
2018-11-05T03:29:49.294Z,25.33
2018-11-05T03:32:18.223Z,22.40
2018-11-05T03:34:47.194Z,22.43
2018-11-05T03:37:16.144Z,20.73
2018-11-05T03:39:45.045Z,22.57
2018-11-05T03:42:14.021Z,23.37
2018-11-05T03:44:42.941Z,22.83
2018-11-05T03:47:11.912Z,22.57
2018-11-05T03:49:40.861Z,27.47
2018-11-05T03:52:09.823Z,21.93
2018-11-05T03:54:38.794Z,21.20
2018-11-05T03:57:07.797Z,21.37
2018-11-05T03:59:36.792Z,21.00
2018-11-05T04:02:05.954Z,21.90
2018-11-05T04:04:34.861Z,22.47
2018-11-05T04:07:03.814Z,19.67
2018-11-05T04:09:32.763Z,21.33
2018-11-05T04:12:01.697Z,20.90
2018-11-05T04:14:30.624Z,22.23
2018-11-05T04:16:59.544Z,26.20
2018-11-05T04:19:28.449Z,24.50
2018-11-05T04:21:57.449Z,24.60
2018-11-05T04:24:26.312Z,27.97
2018-11-05T04:26:55.249Z,27.43
2018-11-05T04:29:24.152Z,31.20
2018-11-05T04:31:53.060Z,28.30
2018-11-05T04:34:21.980Z,26.10
2018-11-05T04:36:50.905Z,24.10
2018-11-05T04:39:19.856Z,28.53
2018-11-05T04:41:48.783Z,26.67
2018-11-05T04:44:17.711Z,28.27
2018-11-05T04:46:46.632Z,26.20
2018-11-05T04:49:15.564Z,26.37
2018-11-05T04:51:44.449Z,23.63
2018-11-05T04:54:13.401Z,24.70
2018-11-05T04:56:42.292Z,25.53
2018-11-05T04:59:11.191Z,25.07
2018-11-05T05:01:40.092Z,26.13
2018-11-05T05:04:09.015Z,25.80
2018-11-05T05:06:37.910Z,26.60
2018-11-05T05:09:09.482Z,28.23
2018-11-05T05:11:38.431Z,28.97
2018-11-05T05:14:07.517Z,27.27
2018-11-05T05:16:36.832Z,28.77
2018-11-05T05:19:05.831Z,28.77
2018-11-05T05:21:34.738Z,28.47
2018-11-05T05:24:03.872Z,28.10
2018-11-05T05:26:32.800Z,28.30
2018-11-05T05:29:01.784Z,27.83
2018-11-05T05:31:30.656Z,28.13
2018-11-05T05:33:59.564Z,28.97
2018-11-05T05:36:28.659Z,28.90
2018-11-05T05:38:57.548Z,35.90
2018-11-05T05:41:26.498Z,29.97
2018-11-05T05:43:55.347Z,28.03
2018-11-05T05:46:24.275Z,28.23
2018-11-05T05:48:53.295Z,38.17
2018-11-05T05:51:22.132Z,30.00
2018-11-05T05:53:51.064Z,28.10
2018-11-05T05:56:19.982Z,29.33
2018-11-05T05:58:48.936Z,28.83
2018-11-05T06:01:17.863Z,29.03
2018-11-05T06:03:46.775Z,30.23
2018-11-05T06:06:15.811Z,30.57
2018-11-05T06:08:44.613Z,43.23
2018-11-05T06:11:13.541Z,34.30
2018-11-05T06:13:42.455Z,30.27
2018-11-05T06:16:11.465Z,28.10
2018-11-05T06:18:40.634Z,30.57
2018-11-05T06:21:09.580Z,29.13
2018-11-05T06:23:38.504Z,27.43
2018-11-05T06:26:07.491Z,28.33
2018-11-05T06:28:36.504Z,29.23
2018-11-05T06:31:05.930Z,28.40
2018-11-05T06:33:34.953Z,27.43
2018-11-05T06:36:03.870Z,29.03
2018-11-05T06:38:32.774Z,26.43
2018-11-05T06:41:01.719Z,25.77
2018-11-05T06:43:30.638Z,26.07
2018-11-05T06:45:59.585Z,25.47
2018-11-05T06:48:28.495Z,24.20
2018-11-05T06:50:57.409Z,24.37
2018-11-05T06:53:26.319Z,25.67
2018-11-05T06:55:55.274Z,25.10
2018-11-05T06:58:24.198Z,26.27
2018-11-05T07:00:53.108Z,25.93
2018-11-05T07:03:22.018Z,35.08
2018-11-05T07:05:51.067Z,27.80
2018-11-05T07:08:19.907Z,27.23
2018-11-05T07:10:48.857Z,26.67
2018-11-05T07:13:17.828Z,25.60
2018-11-05T07:15:46.737Z,29.17
2018-11-05T07:18:15.758Z,27.17
2018-11-05T07:20:44.625Z,26.77
2018-11-05T07:23:13.593Z,26.50
2018-11-05T07:25:42.484Z,34.23
2018-11-05T07:28:11.404Z,26.23
2018-11-05T07:30:40.349Z,26.23
2018-11-05T07:33:09.436Z,32.80
2018-11-05T07:35:38.339Z,25.43
2018-11-05T07:38:07.452Z,25.40
2018-11-05T07:40:36.356Z,25.63
2018-11-05T07:43:05.702Z,25.17
2018-11-05T07:45:34.668Z,25.13
2018-11-05T07:48:03.714Z,25.20
2018-11-05T07:50:32.689Z,32.77
2018-11-05T07:53:01.582Z,28.37
2018-11-05T07:55:30.524Z,25.47
2018-11-05T07:57:59.426Z,26.00
2018-11-05T08:00:46.301Z,25.97
2018-11-05T08:03:15.186Z,33.28
2018-11-05T08:05:44.097Z,27.83
2018-11-05T08:08:13.136Z,26.33
2018-11-05T08:10:41.941Z,26.87
2018-11-05T08:13:10.860Z,32.50
2018-11-05T08:15:39.806Z,26.97
2018-11-05T08:18:08.769Z,26.53
2018-11-05T08:20:37.747Z,26.50
2018-11-05T08:23:06.877Z,26.77
2018-11-05T08:25:35.785Z,26.47
2018-11-05T08:28:04.837Z,32.50
2018-11-05T08:30:33.749Z,25.00
2018-11-05T08:33:02.688Z,26.80
2018-11-05T08:35:31.609Z,32.73
2018-11-05T08:38:00.637Z,27.13
2018-11-05T08:40:29.547Z,26.60
2018-11-05T08:42:58.465Z,25.93
2018-11-05T08:45:28.864Z,25.27
2018-11-05T08:47:57.811Z,25.60
2018-11-05T08:50:26.839Z,26.97
2018-11-05T08:52:55.772Z,25.10
2018-11-05T08:55:25.834Z,34.80
2018-11-05T08:57:54.755Z,27.10
2018-11-05T09:00:41.384Z,26.63
2018-11-05T09:03:10.451Z,25.80
2018-11-05T09:05:39.430Z,26.97
2018-11-05T09:08:08.717Z,26.13
2018-11-05T09:10:38.024Z,25.10
2018-11-05T09:13:07.224Z,26.17
2018-11-05T09:15:36.229Z,27.07
2018-11-05T09:18:05.237Z,27.07
2018-11-05T09:20:34.274Z,26.17
2018-11-05T09:23:03.209Z,25.77
2018-11-05T09:25:32.182Z,26.03
2018-11-05T09:28:01.163Z,25.20
2018-11-05T09:30:30.037Z,26.97
2018-11-05T09:32:59.013Z,26.60
2018-11-05T09:35:27.965Z,26.87
2018-11-05T09:37:56.939Z,26.70
2018-11-05T09:40:25.939Z,26.13
2018-11-05T09:42:54.933Z,26.07
2018-11-05T09:45:25.186Z,31.15
2018-11-05T09:47:54.097Z,25.97
2018-11-05T09:50:23.089Z,25.40
2018-11-05T09:52:52.070Z,25.07
2018-11-05T09:55:21.037Z,27.57
2018-11-05T09:57:50.036Z,26.53
2018-11-05T10:00:23.218Z,33.85
2018-11-05T10:03:10.256Z,29.87
2018-11-05T10:05:39.061Z,29.40
2018-11-05T10:08:08.099Z,29.87
2018-11-05T10:10:37.079Z,29.83
2018-11-05T10:13:06.172Z,27.97
2018-11-05T10:15:35.075Z,29.93
2018-11-05T10:18:04.111Z,29.90
2018-11-05T10:20:33.029Z,30.27
2018-11-05T10:23:01.997Z,32.70
2018-11-05T10:25:30.960Z,31.97
2018-11-05T10:28:03.441Z,33.50
2018-11-05T10:30:32.537Z,33.83
2018-11-05T10:33:01.566Z,41.42
2018-11-05T10:35:48.418Z,41.63
2018-11-05T10:38:17.359Z,41.50
2018-11-05T10:40:46.398Z,36.87
2018-11-05T10:43:15.355Z,36.63
2018-11-05T10:45:44.305Z,36.67
2018-11-05T10:48:13.528Z,36.73
2018-11-05T10:50:42.541Z,45.83
2018-11-05T10:53:11.483Z,38.67
2018-11-05T10:55:40.425Z,37.20
2018-11-05T10:58:09.608Z,36.70
2018-11-05T11:00:57.342Z,37.77
2018-11-05T11:03:31.645Z,38.30
2018-11-05T11:06:01.729Z,37.43
2018-11-05T11:08:32.324Z,38.03
2018-11-05T11:11:01.694Z,39.13
2018-11-05T11:13:31.702Z,39.37
2018-11-05T11:16:01.228Z,39.23
2018-11-05T11:18:31.047Z,51.00
2018-11-05T11:21:00.050Z,42.07
2018-11-05T11:23:29.429Z,41.10
2018-11-05T11:25:58.388Z,40.40
2018-11-05T11:28:27.599Z,41.43
2018-11-05T11:30:56.369Z,40.03
2018-11-05T11:33:25.302Z,41.50
2018-11-05T11:35:55.447Z,41.83
2018-11-05T11:38:24.563Z,43.53
2018-11-05T11:40:54.133Z,39.10
2018-11-05T11:43:23.058Z,42.33
2018-11-05T11:45:52.021Z,41.57
2018-11-05T11:48:20.958Z,40.67
2018-11-05T11:50:49.878Z,41.93
2018-11-05T11:53:19.069Z,42.03
2018-11-05T11:55:47.982Z,40.43
2018-11-05T11:58:16.900Z,40.73
2018-11-05T12:00:45.894Z,41.37
2018-11-05T12:03:14.826Z,41.10
2018-11-05T12:05:43.805Z,41.83
2018-11-05T12:08:12.802Z,41.97
2018-11-05T12:10:41.801Z,41.37
2018-11-05T12:13:10.885Z,43.27
2018-11-05T12:15:39.863Z,41.80
2018-11-05T12:18:08.948Z,40.87
2018-11-05T12:20:37.828Z,42.43
2018-11-05T12:23:07.013Z,40.97
2018-11-05T12:25:36.042Z,41.10
2018-11-05T12:28:05.014Z,40.00
2018-11-05T12:30:33.917Z,42.30
2018-11-05T12:33:02.937Z,41.80
2018-11-05T12:35:31.887Z,41.90
2018-11-05T12:38:00.830Z,41.00
2018-11-05T12:40:29.737Z,40.20
2018-11-05T12:42:58.698Z,41.37
2018-11-05T12:45:27.654Z,41.20
2018-11-05T12:47:56.606Z,40.90
2018-11-05T12:50:25.687Z,41.43
2018-11-05T12:52:55.512Z,42.27
2018-11-05T12:55:24.630Z,39.53
2018-11-05T12:57:53.673Z,39.80
2018-11-05T13:00:26.092Z,41.90
2018-11-05T13:02:58.847Z,40.80
2018-11-05T13:05:32.471Z,40.43
2018-11-05T13:08:01.670Z,42.23
2018-11-05T13:10:30.624Z,40.67
2018-11-05T13:12:59.748Z,49.70
2018-11-05T13:15:28.880Z,41.40
2018-11-05T13:17:57.517Z,38.40
2018-11-05T13:20:26.460Z,38.87
2018-11-05T13:22:55.368Z,38.87
2018-11-05T13:25:24.334Z,37.37
2018-11-05T13:27:53.255Z,36.70
2018-11-05T13:30:22.319Z,44.27
2018-11-05T13:32:51.238Z,36.07
2018-11-05T13:35:21.381Z,45.43
2018-11-05T13:37:50.763Z,39.47
2018-11-05T13:40:20.549Z,45.15
2018-11-05T13:42:50.018Z,37.70
2018-11-05T13:45:19.451Z,36.77
2018-11-05T13:47:48.985Z,36.70
2018-11-05T13:50:17.678Z,44.75
2018-11-05T13:52:46.398Z,36.93
2018-11-05T13:55:16.317Z,36.67
2018-11-05T13:57:46.497Z,35.97
2018-11-05T14:00:16.595Z,35.17
2018-11-05T14:02:45.653Z,36.17
2018-11-05T14:05:14.744Z,36.17
2018-11-05T14:07:43.721Z,36.20
2018-11-05T14:10:17.011Z,34.43
2018-11-05T14:12:46.570Z,36.40
2018-11-05T14:15:15.360Z,34.63
2018-11-05T14:17:44.787Z,37.40
2018-11-05T14:20:14.771Z,42.38
2018-11-05T14:22:43.940Z,35.97
2018-11-05T14:25:16.917Z,41.77
2018-11-05T14:27:47.499Z,35.73
2018-11-05T14:30:16.776Z,42.85
2018-11-05T14:32:46.392Z,36.60
2018-11-05T14:35:15.433Z,35.23
2018-11-05T14:37:44.358Z,33.23
2018-11-05T14:40:14.605Z,36.10
2018-11-05T14:42:43.583Z,36.40
2018-11-05T14:45:19.892Z,43.23
2018-11-05T14:47:50.427Z,36.47
2018-11-05T14:50:20.879Z,35.17
2018-11-05T14:52:49.697Z,35.27
2018-11-05T14:55:19.714Z,35.60
2018-11-05T14:57:49.959Z,42.98
2018-11-05T15:00:28.593Z,36.47
2018-11-05T15:02:58.141Z,35.83
2018-11-05T15:05:27.089Z,35.83
2018-11-05T15:07:55.993Z,35.83
2018-11-05T15:10:25.783Z,34.67
2018-11-05T15:12:54.690Z,35.20
2018-11-05T15:15:23.932Z,33.90
2018-11-05T15:17:52.875Z,32.70
2018-11-05T15:20:22.786Z,33.53
2018-11-05T15:22:51.778Z,34.20
2018-11-05T15:25:21.368Z,32.97
2018-11-05T15:27:50.308Z,35.17
2018-11-05T15:30:20.557Z,42.50
2018-11-05T15:32:49.536Z,36.03
2018-11-05T15:35:18.422Z,36.67
2018-11-05T15:37:47.378Z,35.30
2018-11-05T15:40:17.556Z,36.27
2018-11-05T15:42:46.487Z,35.37
2018-11-05T15:45:16.664Z,33.73
2018-11-05T15:47:45.579Z,34.43
2018-11-05T15:50:15.851Z,34.30
2018-11-05T15:52:45.140Z,32.93
2018-11-05T15:55:13.972Z,34.60
2018-11-05T15:57:42.884Z,31.93
2018-11-05T16:00:24.700Z,34.27
2018-11-05T16:03:00.868Z,34.63
2018-11-05T16:05:29.802Z,33.33
2018-11-05T16:07:58.784Z,35.13
2018-11-05T16:10:27.723Z,35.00
2018-11-05T16:12:56.637Z,32.90
2018-11-05T16:15:25.553Z,35.40
2018-11-05T16:17:54.425Z,34.23
2018-11-05T16:20:23.779Z,34.77
2018-11-05T16:22:53.089Z,34.03
2018-11-05T16:25:22.052Z,36.10
2018-11-05T16:27:50.900Z,44.23
2018-11-05T16:30:20.971Z,37.77
2018-11-05T16:32:50.496Z,36.40
2018-11-05T16:35:19.443Z,37.03
2018-11-05T16:37:48.395Z,36.57
2018-11-05T16:40:18.179Z,36.50
2018-11-05T16:42:48.198Z,36.23
2018-11-05T16:45:17.113Z,36.97
2018-11-05T16:47:46.290Z,35.43
2018-11-05T16:50:25.732Z,37.30
2018-11-05T16:52:54.746Z,38.27
2018-11-05T16:55:23.904Z,36.53
2018-11-05T16:57:52.919Z,45.63
2018-11-05T17:00:21.728Z,38.70
2018-11-05T17:02:50.839Z,37.53
2018-11-05T17:05:19.609Z,38.53
2018-11-05T17:07:48.523Z,37.73
2018-11-05T17:10:17.441Z,37.20
2018-11-05T17:12:46.421Z,37.60
2018-11-05T17:15:16.371Z,35.77
2018-11-05T17:17:45.689Z,36.33
2018-11-05T17:20:15.879Z,37.17
2018-11-05T17:22:45.098Z,35.50
2018-11-05T17:25:14.410Z,36.03
2018-11-05T17:27:43.918Z,43.17
2018-11-05T17:30:15.464Z,36.67
2018-11-05T17:32:44.874Z,35.57
2018-11-05T17:35:14.263Z,34.00
2018-11-05T17:37:43.573Z,34.40
2018-11-05T17:40:13.832Z,34.37
2018-11-05T17:42:42.783Z,34.40
2018-11-05T17:45:13.008Z,33.40
2018-11-05T17:47:42.011Z,33.63
2018-11-05T17:50:13.359Z,34.13
2018-11-05T17:52:42.547Z,34.30
2018-11-05T17:55:12.146Z,32.87
2018-11-05T17:57:42.095Z,33.37
2018-11-05T18:00:13.816Z,32.00
2018-11-05T18:02:42.759Z,32.43
2018-11-05T18:05:11.759Z,32.77
2018-11-05T18:07:40.706Z,32.03
2018-11-05T18:10:09.710Z,33.00
2018-11-05T18:12:38.707Z,32.23
2018-11-05T18:15:09.388Z,39.50
2018-11-05T18:17:38.830Z,40.45
2018-11-05T18:20:09.104Z,33.70
2018-11-05T18:22:38.074Z,39.25
2018-11-05T18:25:08.711Z,34.13
2018-11-05T18:27:37.673Z,32.80
2018-11-05T18:30:07.247Z,30.17
2018-11-05T18:32:36.170Z,40.67
2018-11-05T18:35:05.439Z,32.30
2018-11-05T18:37:34.374Z,32.60
2018-11-05T18:40:03.490Z,32.03
2018-11-05T18:42:32.464Z,38.87
2018-11-05T18:45:01.363Z,33.63
2018-11-05T18:47:30.272Z,32.53
2018-11-05T18:49:59.262Z,31.83
2018-11-05T18:52:28.134Z,31.57
2018-11-05T18:54:57.077Z,31.83
2018-11-05T18:57:26.004Z,30.03
2018-11-05T18:59:54.930Z,31.63
2018-11-05T19:02:33.389Z,32.40
2018-11-05T19:05:02.317Z,33.57
2018-11-05T19:07:31.498Z,34.97
2018-11-05T19:10:00.422Z,40.53
2018-11-05T19:12:29.323Z,41.30
2018-11-05T19:14:58.305Z,42.30
2018-11-05T19:17:27.208Z,36.37
2018-11-05T19:19:56.151Z,42.30
2018-11-05T19:22:25.196Z,36.40
2018-11-05T19:24:53.997Z,42.78
2018-11-05T19:27:22.921Z,36.13
2018-11-05T19:29:51.927Z,32.50
2018-11-05T19:32:20.802Z,32.43
2018-11-05T19:34:49.711Z,33.37
2018-11-05T19:37:18.631Z,33.60
2018-11-05T19:39:47.552Z,33.63
2018-11-05T19:42:16.541Z,32.80
2018-11-05T19:44:45.432Z,33.03
2018-11-05T19:47:14.366Z,32.77
2018-11-05T19:49:43.332Z,33.77
2018-11-05T19:52:12.200Z,32.27
2018-11-05T19:54:42.660Z,33.63
2018-11-05T19:57:11.529Z,32.60
2018-11-05T19:59:40.702Z,33.27
2018-11-05T20:02:11.529Z,30.77
2018-11-05T20:04:40.642Z,32.87
2018-11-05T20:07:10.334Z,32.10
2018-11-05T20:09:39.250Z,32.30
2018-11-05T20:12:08.175Z,32.83
2018-11-05T20:14:37.139Z,32.33
2018-11-05T20:17:06.085Z,33.23
2018-11-05T20:19:35.031Z,32.57
2018-11-05T20:22:03.982Z,30.90
2018-11-05T20:24:32.897Z,31.67
2018-11-05T20:27:01.839Z,31.10
2018-11-05T20:29:30.791Z,31.87
2018-11-05T20:32:00.037Z,32.07
2018-11-05T20:34:28.849Z,33.20
2018-11-05T20:36:57.565Z,31.43
2018-11-05T20:39:26.466Z,33.27
2018-11-05T20:41:56.641Z,31.40
2018-11-05T20:44:25.501Z,32.67
2018-11-05T20:46:54.401Z,31.33
2018-11-05T20:49:23.324Z,31.90
2018-11-05T20:51:52.234Z,38.10
2018-11-05T20:54:21.202Z,31.80
2018-11-05T20:56:50.125Z,31.60
2018-11-05T20:59:19.082Z,30.00
2018-11-05T21:01:48.012Z,29.57
2018-11-05T21:04:16.966Z,29.37
2018-11-05T21:06:45.957Z,37.95
2018-11-05T21:09:14.871Z,38.95
2018-11-05T21:11:43.782Z,33.20
2018-11-05T21:14:12.729Z,31.60
2018-11-05T21:16:41.641Z,29.47
2018-11-05T21:19:10.575Z,29.50
2018-11-05T21:21:39.637Z,30.47
2018-11-05T21:24:08.421Z,30.17
2018-11-05T21:26:37.537Z,36.73
2018-11-05T21:29:06.291Z,30.70
2018-11-05T21:31:35.198Z,29.27
2018-11-05T21:34:04.109Z,30.07
2018-11-05T21:36:33.028Z,26.73
2018-11-05T21:39:01.939Z,38.73
2018-11-05T21:41:30.923Z,37.30
2018-11-05T21:43:59.862Z,42.65
2018-11-05T21:46:28.810Z,37.33
2018-11-05T21:48:57.773Z,33.33
2018-11-05T21:51:26.721Z,42.93
2018-11-05T21:53:55.718Z,32.63
2018-11-05T21:56:24.628Z,30.37
2018-11-05T21:58:53.782Z,27.43
2018-11-05T22:01:23.855Z,31.60
2018-11-05T22:03:52.806Z,30.97
2018-11-05T22:06:21.746Z,31.97
2018-11-05T22:08:50.673Z,30.63
2018-11-05T22:11:19.608Z,34.50
2018-11-05T22:13:48.553Z,35.70
2018-11-05T22:16:17.468Z,33.53
2018-11-05T22:18:46.405Z,30.93
2018-11-05T22:21:15.349Z,31.67
2018-11-05T22:23:44.268Z,29.57
2018-11-05T22:26:13.175Z,35.75
2018-11-05T22:28:42.078Z,30.77
2018-11-05T22:31:10.973Z,26.60
2018-11-05T22:33:39.899Z,31.83
2018-11-05T22:36:08.841Z,32.60
2018-11-05T22:38:37.772Z,25.33
2018-11-05T22:41:07.016Z,21.47
2018-11-05T22:43:35.948Z,34.85
2018-11-05T22:46:05.092Z,28.83
2018-11-05T22:48:34.023Z,30.77
2018-11-05T22:51:02.940Z,29.70
2018-11-05T22:53:31.868Z,29.87
2018-11-05T22:56:00.767Z,29.53
2018-11-05T22:58:29.684Z,26.23
2018-11-05T23:01:08.649Z,28.07
2018-11-05T23:03:37.565Z,25.10
2018-11-05T23:06:06.525Z,24.63
2018-11-05T23:08:35.430Z,24.17
2018-11-05T23:11:04.360Z,26.57
2018-11-05T23:13:33.301Z,27.13
2018-11-05T23:16:02.217Z,25.50
2018-11-05T23:18:31.153Z,23.83
2018-11-05T23:21:00.054Z,23.13
2018-11-05T23:23:28.995Z,24.27
2018-11-05T23:25:57.915Z,28.27
2018-11-05T23:28:27.877Z,31.07
2018-11-05T23:30:56.843Z,32.27
2018-11-05T23:33:25.928Z,29.73
2018-11-05T23:35:54.675Z,25.33
2018-11-05T23:38:23.690Z,31.70
2018-11-05T23:40:52.613Z,27.17
2018-11-05T23:43:21.456Z,28.90
2018-11-05T23:45:50.426Z,29.20
2018-11-05T23:48:19.351Z,27.80
2018-11-05T23:50:48.305Z,27.43
2018-11-05T23:53:17.224Z,26.33
2018-11-05T23:55:46.128Z,27.33
2018-11-05T23:58:15.083Z,25.93
